createdAt,value
2019-04-06T00:02:59.977Z,20.93
2019-04-06T00:08:04.853Z,19.70
2019-04-06T00:13:10.511Z,20.77
2019-04-06T00:18:15.473Z,19.57
2019-04-06T00:23:20.986Z,18.30
2019-04-06T00:28:26.309Z,17.73
2019-04-06T00:33:32.031Z,16.50
2019-04-06T00:38:37.961Z,15.60
2019-04-06T00:43:42.969Z,18.73
2019-04-06T00:48:47.845Z,17.00
2019-04-06T00:53:52.873Z,16.97
2019-04-06T00:58:57.917Z,15.80
2019-04-06T01:04:02.695Z,15.70
2019-04-06T01:09:09.227Z,14.60
2019-04-06T01:14:14.271Z,14.70
2019-04-06T01:19:19.237Z,12.60
2019-04-06T01:24:24.281Z,14.90
2019-04-06T01:29:29.435Z,12.60
2019-04-06T01:34:34.586Z,13.57
2019-04-06T01:39:40.829Z,14.90
2019-04-06T01:44:46.041Z,13.27
2019-04-06T01:49:54.756Z,14.77
2019-04-06T01:54:59.929Z,14.97
2019-04-06T02:00:07.528Z,13.90
2019-04-06T07:43:13.731Z,14.53
2019-04-06T07:48:19.395Z,16.10
2019-04-06T07:53:24.601Z,16.83
2019-04-06T07:58:30.183Z,16.67
2019-04-06T08:03:35.475Z,15.87
2019-04-06T08:08:40.513Z,16.27
2019-04-06T08:13:45.990Z,16.97
2019-04-06T08:18:51.607Z,18.83
2019-04-06T08:23:56.959Z,18.37
2019-04-06T08:29:02.811Z,17.70
2019-04-06T08:34:08.430Z,16.10
2019-04-06T08:39:13.164Z,15.37
2019-04-06T08:44:19.764Z,16.47
2019-04-06T08:49:25.299Z,16.10
2019-04-06T08:54:30.627Z,16.47
2019-04-06T08:59:36.035Z,17.00
2019-04-06T09:04:40.999Z,17.10
2019-04-06T09:09:46.020Z,17.03
2019-04-06T09:14:51.109Z,19.60
2019-04-06T09:19:56.257Z,18.70
2019-04-06T09:25:01.232Z,16.40
2019-04-06T09:30:07.056Z,18.00
2019-04-06T09:35:12.686Z,19.43
2019-04-06T09:40:20.807Z,18.70
2019-04-06T09:45:46.375Z,18.90
2019-04-06T09:51:14.742Z,17.80
2019-04-06T09:56:44.159Z,19.67
2019-04-06T10:02:03.650Z,18.30
2019-04-06T10:07:25.806Z,18.70
2019-04-06T10:12:51.024Z,18.73
2019-04-06T10:18:20.571Z,19.30
2019-04-06T10:24:04.217Z,19.57
2019-04-06T10:29:22.592Z,19.57
2019-04-06T10:34:47.899Z,19.57
2019-04-06T10:40:16.789Z,20.43
2019-04-06T10:45:46.350Z,19.83
2019-04-06T10:51:07.348Z,19.97
2019-04-06T10:56:27.564Z,19.17
2019-04-06T11:01:49.674Z,20.60
2019-04-06T11:07:21.407Z,19.03
2019-04-06T11:12:50.354Z,19.10
2019-04-06T11:18:15.073Z,19.30
2019-04-06T11:23:38.227Z,18.27
2019-04-06T11:29:02.191Z,18.37
2019-04-06T11:34:36.535Z,19.03
2019-04-06T11:40:03.368Z,18.73
2019-04-06T11:45:27.369Z,19.50
2019-04-06T11:50:53.165Z,18.40
2019-04-06T11:56:25.951Z,18.00
2019-04-06T12:01:55.295Z,18.73
2019-04-06T12:07:18.073Z,20.07
2019-04-06T12:12:58.901Z,19.30
2019-04-06T12:18:16.952Z,17.30
2019-04-06T12:23:36.239Z,15.60
2019-04-06T12:28:55.154Z,10.70
2019-04-06T12:34:12.191Z,12.67
2019-04-06T12:39:52.563Z,13.80
2019-04-06T12:45:14.952Z,15.80
2019-04-06T12:50:43.832Z,14.07
2019-04-06T12:56:09.282Z,14.40
2019-04-06T13:01:24.791Z,14.70
2019-04-06T13:06:47.889Z,14.50
2019-04-06T13:12:04.947Z,14.97
2019-04-06T13:17:24.140Z,15.30
2019-04-06T13:22:49.250Z,15.10
2019-04-06T13:28:14.584Z,15.00
2019-04-06T13:33:39.966Z,13.90
2019-04-06T13:39:03.841Z,15.20
2019-04-06T13:44:41.751Z,14.03
2019-04-06T13:50:16.245Z,14.80
2019-04-06T13:55:38.619Z,14.10
2019-04-06T14:01:15.098Z,14.13
2019-04-06T14:06:29.054Z,15.33
2019-04-06T14:12:10.746Z,14.17
2019-04-06T14:17:52.768Z,13.60
2019-04-06T14:23:32.118Z,15.07
2019-04-06T14:28:57.609Z,14.03
2019-04-06T14:34:21.781Z,14.50
2019-04-06T14:39:51.677Z,16.30
2019-04-06T14:45:15.601Z,16.63
2019-04-06T14:50:44.941Z,15.50
2019-04-06T14:55:54.837Z,16.30
2019-04-06T15:01:09.846Z,16.90
2019-04-06T15:06:29.284Z,17.60
2019-04-06T15:11:43.954Z,16.60
2019-04-06T15:17:07.403Z,17.63
2019-04-06T15:22:22.719Z,15.67
2019-04-06T15:27:46.267Z,16.10
2019-04-06T15:33:15.479Z,14.50
2019-04-06T15:38:33.592Z,15.83
2019-04-06T15:44:13.746Z,17.70
2019-04-06T15:49:30.569Z,14.93
2019-04-06T15:54:49.861Z,16.27
2019-04-06T16:00:19.105Z,14.40
2019-04-06T16:05:40.987Z,14.37
2019-04-06T16:11:13.315Z,15.10
2019-04-06T16:16:29.354Z,14.80
2019-04-06T16:21:50.661Z,14.90
2019-04-06T16:27:19.734Z,16.30
2019-04-06T16:32:47.151Z,15.90
2019-04-06T16:38:12.175Z,15.07
2019-04-06T16:43:34.062Z,14.63
2019-04-06T16:49:07.893Z,15.13
2019-04-06T16:54:29.938Z,16.63
2019-04-06T17:00:18.923Z,14.50
2019-04-06T17:05:49.601Z,14.00
2019-04-06T17:11:23.654Z,13.90
2019-04-06T17:16:47.634Z,14.03
2019-04-06T17:22:20.454Z,15.07
2019-04-06T17:27:43.266Z,13.43
2019-04-06T17:33:08.875Z,13.93
2019-04-06T17:38:41.654Z,14.13
2019-04-06T17:44:05.859Z,14.67
2019-04-06T17:49:24.861Z,16.37
2019-04-06T17:54:55.850Z,18.83
2019-04-06T18:00:20.466Z,17.90
2019-04-06T18:05:50.690Z,14.83
2019-04-06T18:11:05.192Z,14.70
2019-04-06T18:16:10.030Z,15.27
2019-04-06T18:21:14.746Z,13.67
2019-04-06T18:26:19.530Z,13.93
2019-04-06T18:31:41.922Z,16.40
2019-04-06T18:37:23.792Z,14.90
2019-04-06T18:42:28.614Z,15.87
2019-04-06T18:47:32.840Z,14.80
2019-04-06T18:52:38.453Z,13.97
2019-04-06T18:57:43.776Z,13.00
2019-04-06T19:02:50.145Z,14.00
2019-04-06T19:07:56.303Z,13.80
2019-04-06T19:13:02.115Z,13.10
2019-04-06T19:18:07.833Z,14.30
2019-04-06T19:23:13.625Z,13.50
2019-04-06T19:28:19.050Z,14.77
2019-04-06T19:33:26.099Z,14.47
2019-04-06T19:38:31.916Z,15.67
2019-04-06T19:43:36.937Z,15.77
2019-04-06T19:48:41.775Z,17.70
2019-04-06T19:53:47.114Z,18.17
2019-04-06T19:58:52.661Z,18.63
2019-04-06T20:03:58.471Z,17.20
2019-04-06T20:09:05.845Z,15.87
2019-04-06T20:14:13.207Z,14.20
2019-04-06T20:19:18.908Z,14.57
2019-04-06T20:24:24.349Z,14.70
2019-04-06T20:29:29.833Z,15.50
2019-04-06T20:34:36.089Z,15.90
2019-04-06T20:39:41.665Z,16.90
2019-04-06T20:44:47.260Z,22.97
2019-04-06T20:49:54.025Z,19.80
2019-04-06T20:55:00.342Z,21.03
2019-04-06T21:00:06.334Z,21.53
2019-04-06T21:05:14.902Z,21.37
2019-04-06T21:10:20.508Z,21.00
2019-04-06T21:15:25.347Z,20.00
2019-04-06T21:20:29.165Z,19.80
2019-04-06T21:25:32.697Z,18.03
2019-04-06T21:30:38.021Z,18.43
2019-04-06T21:35:43.866Z,18.97
2019-04-06T21:40:50.065Z,20.43
2019-04-06T21:45:55.463Z,19.30
2019-04-06T21:51:00.207Z,17.20
2019-04-06T21:56:07.331Z,17.00
2019-04-06T22:01:14.567Z,16.37
2019-04-06T22:06:20.771Z,16.70
2019-04-06T22:11:26.531Z,16.47
2019-04-06T22:16:31.095Z,16.70
2019-04-06T22:21:35.336Z,16.53
2019-04-06T22:26:39.659Z,15.50
2019-04-06T22:31:43.827Z,15.53
2019-04-06T22:36:48.383Z,15.60
2019-04-06T22:41:53.905Z,15.17
2019-04-06T22:47:00.365Z,15.67
2019-04-06T22:52:06.589Z,15.67
2019-04-06T22:57:12.756Z,15.63
2019-04-06T23:02:17.044Z,17.50
2019-04-06T23:07:23.314Z,17.77
2019-04-06T23:12:27.733Z,18.63
2019-04-06T23:17:33.135Z,17.80
2019-04-06T23:22:38.377Z,17.03
2019-04-06T23:27:43.948Z,19.30
2019-04-06T23:32:49.163Z,18.80
2019-04-06T23:37:54.971Z,19.07
2019-04-06T23:43:00.045Z,19.03
2019-04-06T23:48:06.168Z,17.57
2019-04-06T23:53:11.145Z,16.27
2019-04-06T23:58:17.758Z,15.03
